sensor_id;sensor_type;location;lat;lon;timestamp;P1;durP1;ratioP1;P2;durP2;ratioP2
76566;SDS011;65428;53.194;6.132;2024-01-30T00:01:40;43.13;;;35.08;;
76566;SDS011;65428;53.194;6.132;2024-01-30T00:04:06;42.08;;;35.30;;
76566;SDS011;65428;53.194;6.132;2024-01-30T00:06:32;42.17;;;35.73;;
76566;SDS011;65428;53.194;6.132;2024-01-30T00:08:58;44.47;;;36.13;;
76566;SDS011;65428;53.194;6.132;2024-01-30T00:11:23;41.63;;;36.65;;
76566;SDS011;65428;53.194;6.132;2024-01-30T00:13:53;44.55;;;37.55;;
76566;SDS011;65428;53.194;6.132;2024-01-30T00:16:23;42.10;;;35.92;;
76566;SDS011;65428;53.194;6.132;2024-01-30T00:18:52;44.70;;;37.38;;
76566;SDS011;65428;53.194;6.132;2024-01-30T00:21:18;43.95;;;36.65;;
76566;SDS011;65428;53.194;6.132;2024-01-30T00:23:44;43.50;;;36.28;;
76566;SDS011;65428;53.194;6.132;2024-01-30T00:26:10;42.95;;;35.70;;
76566;SDS011;65428;53.194;6.132;2024-01-30T00:28:36;44.22;;;36.50;;
76566;SDS011;65428;53.194;6.132;2024-01-30T00:31:03;48.50;;;38.70;;
76566;SDS011;65428;53.194;6.132;2024-01-30T00:33:29;43.92;;;37.83;;
76566;SDS011;65428;53.194;6.132;2024-01-30T00:35:54;41.90;;;35.83;;
76566;SDS011;65428;53.194;6.132;2024-01-30T00:38:20;47.70;;;38.70;;
76566;SDS011;65428;53.194;6.132;2024-01-30T00:40:46;42.20;;;36.83;;
76566;SDS011;65428;53.194;6.132;2024-01-30T00:43:12;48.40;;;39.03;;
76566;SDS011;65428;53.194;6.132;2024-01-30T00:45:37;47.08;;;37.10;;
76566;SDS011;65428;53.194;6.132;2024-01-30T00:48:03;45.40;;;37.50;;
76566;SDS011;65428;53.194;6.132;2024-01-30T00:50:29;44.83;;;36.33;;
76566;SDS011;65428;53.194;6.132;2024-01-30T00:52:54;50.00;;;40.00;;
76566;SDS011;65428;53.194;6.132;2024-01-30T00:55:20;48.78;;;38.88;;
76566;SDS011;65428;53.194;6.132;2024-01-30T00:57:46;48.70;;;39.73;;
76566;SDS011;65428;53.194;6.132;2024-01-30T01:00:12;51.40;;;39.60;;
76566;SDS011;65428;53.194;6.132;2024-01-30T01:02:41;49.92;;;39.40;;
76566;SDS011;65428;53.194;6.132;2024-01-30T01:05:07;47.50;;;38.20;;
76566;SDS011;65428;53.194;6.132;2024-01-30T01:07:33;53.40;;;40.53;;
76566;SDS011;65428;53.194;6.132;2024-01-30T01:09:59;49.70;;;38.95;;
76566;SDS011;65428;53.194;6.132;2024-01-30T01:12:25;45.80;;;37.57;;
76566;SDS011;65428;53.194;6.132;2024-01-30T01:14:50;53.43;;;40.10;;
76566;SDS011;65428;53.194;6.132;2024-01-30T01:17:16;46.95;;;38.83;;
76566;SDS011;65428;53.194;6.132;2024-01-30T01:19:43;50.65;;;39.65;;
76566;SDS011;65428;53.194;6.132;2024-01-30T01:22:09;47.92;;;39.60;;
76566;SDS011;65428;53.194;6.132;2024-01-30T01:24:35;50.87;;;39.80;;
76566;SDS011;65428;53.194;6.132;2024-01-30T01:27:01;52.60;;;39.45;;
76566;SDS011;65428;53.194;6.132;2024-01-30T01:29:26;53.38;;;40.75;;
76566;SDS011;65428;53.194;6.132;2024-01-30T01:31:57;47.28;;;38.97;;
76566;SDS011;65428;53.194;6.132;2024-01-30T01:34:23;53.00;;;40.65;;
76566;SDS011;65428;53.194;6.132;2024-01-30T01:36:49;48.72;;;38.78;;
76566;SDS011;65428;53.194;6.132;2024-01-30T01:39:15;51.95;;;39.63;;
76566;SDS011;65428;53.194;6.132;2024-01-30T01:41:41;54.75;;;40.63;;
76566;SDS011;65428;53.194;6.132;2024-01-30T01:44:07;51.58;;;39.85;;
76566;SDS011;65428;53.194;6.132;2024-01-30T01:46:33;46.77;;;37.63;;
76566;SDS011;65428;53.194;6.132;2024-01-30T01:49:01;51.63;;;39.55;;
76566;SDS011;65428;53.194;6.132;2024-01-30T01:51:29;53.65;;;39.42;;
76566;SDS011;65428;53.194;6.132;2024-01-30T01:53:56;54.03;;;41.10;;
76566;SDS011;65428;53.194;6.132;2024-01-30T01:56:24;50.22;;;38.40;;
76566;SDS011;65428;53.194;6.132;2024-01-30T01:58:50;47.13;;;37.53;;
76566;SDS011;65428;53.194;6.132;2024-01-30T02:01:19;48.92;;;37.65;;
76566;SDS011;65428;53.194;6.132;2024-01-30T02:03:45;50.45;;;37.72;;
76566;SDS011;65428;53.194;6.132;2024-01-30T02:06:12;61.33;;;41.23;;
76566;SDS011;65428;53.194;6.132;2024-01-30T02:08:39;47.57;;;37.90;;
76566;SDS011;65428;53.194;6.132;2024-01-30T02:11:05;47.67;;;37.43;;
76566;SDS011;65428;53.194;6.132;2024-01-30T02:13:31;45.50;;;36.20;;
76566;SDS011;65428;53.194;6.132;2024-01-30T02:15:57;51.10;;;38.92;;
76566;SDS011;65428;53.194;6.132;2024-01-30T02:18:22;45.70;;;37.37;;
76566;SDS011;65428;53.194;6.132;2024-01-30T02:20:48;46.07;;;37.50;;
76566;SDS011;65428;53.194;6.132;2024-01-30T02:23:15;46.33;;;37.17;;
76566;SDS011;65428;53.194;6.132;2024-01-30T02:25:42;45.15;;;36.28;;
76566;SDS011;65428;53.194;6.132;2024-01-30T02:28:11;43.05;;;36.20;;
76566;SDS011;65428;53.194;6.132;2024-01-30T02:30:38;44.22;;;36.30;;
76566;SDS011;65428;53.194;6.132;2024-01-30T02:33:04;46.57;;;36.63;;
76566;SDS011;65428;53.194;6.132;2024-01-30T02:35:30;47.23;;;37.30;;
76566;SDS011;65428;53.194;6.132;2024-01-30T02:37:55;41.97;;;35.05;;
76566;SDS011;65428;53.194;6.132;2024-01-30T02:40:21;48.15;;;36.22;;
76566;SDS011;65428;53.194;6.132;2024-01-30T02:42:47;45.07;;;35.97;;
76566;SDS011;65428;53.194;6.132;2024-01-30T02:45:13;51.77;;;40.10;;
76566;SDS011;65428;53.194;6.132;2024-01-30T02:47:38;43.50;;;35.33;;
76566;SDS011;65428;53.194;6.132;2024-01-30T02:50:05;44.03;;;35.13;;
76566;SDS011;65428;53.194;6.132;2024-01-30T02:52:31;43.93;;;35.90;;
76566;SDS011;65428;53.194;6.132;2024-01-30T02:54:56;45.70;;;35.30;;
76566;SDS011;65428;53.194;6.132;2024-01-30T02:57:23;42.88;;;33.90;;
76566;SDS011;65428;53.194;6.132;2024-01-30T02:59:49;45.03;;;35.45;;
76566;SDS011;65428;53.194;6.132;2024-01-30T03:02:15;42.75;;;34.10;;
76566;SDS011;65428;53.194;6.132;2024-01-30T03:04:41;42.47;;;34.40;;
76566;SDS011;65428;53.194;6.132;2024-01-30T03:07:07;42.78;;;34.50;;
76566;SDS011;65428;53.194;6.132;2024-01-30T03:09:32;44.03;;;33.90;;
76566;SDS011;65428;53.194;6.132;2024-01-30T03:11:58;40.77;;;32.53;;
76566;SDS011;65428;53.194;6.132;2024-01-30T03:14:24;37.95;;;33.03;;
76566;SDS011;65428;53.194;6.132;2024-01-30T03:16:49;39.60;;;33.40;;
76566;SDS011;65428;53.194;6.132;2024-01-30T03:19:15;44.37;;;34.80;;
76566;SDS011;65428;53.194;6.132;2024-01-30T03:21:41;40.70;;;34.00;;
76566;SDS011;65428;53.194;6.132;2024-01-30T03:24:06;44.75;;;35.40;;
76566;SDS011;65428;53.194;6.132;2024-01-30T03:26:32;42.43;;;34.43;;
76566;SDS011;65428;53.194;6.132;2024-01-30T03:28:57;43.20;;;33.87;;
76566;SDS011;65428;53.194;6.132;2024-01-30T03:31:23;42.30;;;34.95;;
76566;SDS011;65428;53.194;6.132;2024-01-30T03:33:49;41.43;;;34.10;;
76566;SDS011;65428;53.194;6.132;2024-01-30T03:36:15;41.33;;;34.00;;
76566;SDS011;65428;53.194;6.132;2024-01-30T03:38:41;39.88;;;34.45;;
76566;SDS011;65428;53.194;6.132;2024-01-30T03:41:07;42.60;;;34.38;;
76566;SDS011;65428;53.194;6.132;2024-01-30T03:43:34;41.00;;;33.97;;
76566;SDS011;65428;53.194;6.132;2024-01-30T03:46:01;42.38;;;34.72;;
76566;SDS011;65428;53.194;6.132;2024-01-30T03:48:27;43.53;;;34.35;;
76566;SDS011;65428;53.194;6.132;2024-01-30T03:50:52;43.57;;;35.30;;
76566;SDS011;65428;53.194;6.132;2024-01-30T03:53:18;39.57;;;32.50;;
76566;SDS011;65428;53.194;6.132;2024-01-30T03:55:44;43.47;;;34.90;;
76566;SDS011;65428;53.194;6.132;2024-01-30T03:58:09;41.77;;;34.50;;
76566;SDS011;65428;53.194;6.132;2024-01-30T04:00:35;41.30;;;34.07;;
76566;SDS011;65428;53.194;6.132;2024-01-30T04:03:00;41.00;;;33.85;;
76566;SDS011;65428;53.194;6.132;2024-01-30T04:05:26;39.90;;;32.93;;
76566;SDS011;65428;53.194;6.132;2024-01-30T04:07:52;38.13;;;32.90;;
76566;SDS011;65428;53.194;6.132;2024-01-30T04:10:18;37.70;;;32.72;;
76566;SDS011;65428;53.194;6.132;2024-01-30T04:12:43;38.22;;;32.60;;
76566;SDS011;65428;53.194;6.132;2024-01-30T04:15:09;39.37;;;32.47;;
76566;SDS011;65428;53.194;6.132;2024-01-30T04:17:35;41.73;;;32.37;;
76566;SDS011;65428;53.194;6.132;2024-01-30T04:20:00;39.03;;;32.83;;
76566;SDS011;65428;53.194;6.132;2024-01-30T04:22:26;39.92;;;33.55;;
76566;SDS011;65428;53.194;6.132;2024-01-30T04:24:52;37.93;;;31.67;;
76566;SDS011;65428;53.194;6.132;2024-01-30T04:27:17;48.77;;;32.00;;
76566;SDS011;65428;53.194;6.132;2024-01-30T04:29:43;36.33;;;31.65;;
76566;SDS011;65428;53.194;6.132;2024-01-30T04:32:09;35.60;;;31.02;;
76566;SDS011;65428;53.194;6.132;2024-01-30T04:34:36;34.90;;;30.70;;
76566;SDS011;65428;53.194;6.132;2024-01-30T04:37:02;35.63;;;30.38;;
76566;SDS011;65428;53.194;6.132;2024-01-30T04:39:28;35.33;;;29.75;;
76566;SDS011;65428;53.194;6.132;2024-01-30T04:41:53;33.30;;;29.57;;
76566;SDS011;65428;53.194;6.132;2024-01-30T04:44:19;34.20;;;29.40;;
76566;SDS011;65428;53.194;6.132;2024-01-30T04:46:45;34.88;;;28.20;;
76566;SDS011;65428;53.194;6.132;2024-01-30T04:49:10;33.23;;;28.40;;
76566;SDS011;65428;53.194;6.132;2024-01-30T04:51:36;32.10;;;28.50;;
76566;SDS011;65428;53.194;6.132;2024-01-30T04:54:02;32.78;;;28.13;;
76566;SDS011;65428;53.194;6.132;2024-01-30T04:56:28;30.73;;;26.87;;
76566;SDS011;65428;53.194;6.132;2024-01-30T04:58:55;31.38;;;27.98;;
76566;SDS011;65428;53.194;6.132;2024-01-30T05:01:21;29.73;;;26.63;;
76566;SDS011;65428;53.194;6.132;2024-01-30T05:03:47;30.13;;;26.73;;
76566;SDS011;65428;53.194;6.132;2024-01-30T05:06:12;28.95;;;25.80;;
76566;SDS011;65428;53.194;6.132;2024-01-30T05:08:48;30.55;;;26.17;;
76566;SDS011;65428;53.194;6.132;2024-01-30T05:11:14;28.37;;;25.17;;
76566;SDS011;65428;53.194;6.132;2024-01-30T05:13:40;28.38;;;25.35;;
76566;SDS011;65428;53.194;6.132;2024-01-30T05:16:06;30.63;;;26.35;;
76566;SDS011;65428;53.194;6.132;2024-01-30T05:18:31;28.88;;;25.38;;
76566;SDS011;65428;53.194;6.132;2024-01-30T05:20:57;28.10;;;25.10;;
76566;SDS011;65428;53.194;6.132;2024-01-30T05:23:23;26.92;;;24.00;;
76566;SDS011;65428;53.194;6.132;2024-01-30T05:25:49;27.37;;;23.73;;
76566;SDS011;65428;53.194;6.132;2024-01-30T05:28:15;27.42;;;24.38;;
76566;SDS011;65428;53.194;6.132;2024-01-30T05:30:40;27.15;;;24.15;;
76566;SDS011;65428;53.194;6.132;2024-01-30T05:33:06;28.20;;;23.58;;
76566;SDS011;65428;53.194;6.132;2024-01-30T05:35:32;25.33;;;22.63;;
76566;SDS011;65428;53.194;6.132;2024-01-30T05:37:57;24.05;;;21.42;;
76566;SDS011;65428;53.194;6.132;2024-01-30T05:40:23;25.88;;;23.08;;
76566;SDS011;65428;53.194;6.132;2024-01-30T05:42:49;28.60;;;24.13;;
76566;SDS011;65428;53.194;6.132;2024-01-30T05:45:14;27.10;;;23.08;;
76566;SDS011;65428;53.194;6.132;2024-01-30T05:47:40;25.75;;;22.30;;
76566;SDS011;65428;53.194;6.132;2024-01-30T05:50:06;23.20;;;20.23;;
76566;SDS011;65428;53.194;6.132;2024-01-30T05:52:32;23.25;;;20.85;;
76566;SDS011;65428;53.194;6.132;2024-01-30T05:54:57;23.53;;;20.50;;
76566;SDS011;65428;53.194;6.132;2024-01-30T05:57:23;24.42;;;19.98;;
76566;SDS011;65428;53.194;6.132;2024-01-30T05:59:49;22.70;;;20.15;;
76566;SDS011;65428;53.194;6.132;2024-01-30T06:02:17;23.23;;;20.27;;
76566;SDS011;65428;53.194;6.132;2024-01-30T06:04:42;23.33;;;19.97;;
76566;SDS011;65428;53.194;6.132;2024-01-30T06:07:09;23.02;;;19.90;;
76566;SDS011;65428;53.194;6.132;2024-01-30T06:09:35;22.88;;;19.63;;
76566;SDS011;65428;53.194;6.132;2024-01-30T06:12:01;21.52;;;19.23;;
76566;SDS011;65428;53.194;6.132;2024-01-30T06:14:26;20.73;;;18.53;;
76566;SDS011;65428;53.194;6.132;2024-01-30T06:16:52;21.53;;;19.27;;
76566;SDS011;65428;53.194;6.132;2024-01-30T06:19:18;21.27;;;19.00;;
76566;SDS011;65428;53.194;6.132;2024-01-30T06:21:44;22.55;;;18.40;;
76566;SDS011;65428;53.194;6.132;2024-01-30T06:24:10;21.50;;;18.98;;
76566;SDS011;65428;53.194;6.132;2024-01-30T06:26:36;21.38;;;18.92;;
76566;SDS011;65428;53.194;6.132;2024-01-30T06:29:01;22.67;;;20.03;;
76566;SDS011;65428;53.194;6.132;2024-01-30T06:31:27;23.13;;;19.13;;
76566;SDS011;65428;53.194;6.132;2024-01-30T06:33:53;20.88;;;18.33;;
76566;SDS011;65428;53.194;6.132;2024-01-30T06:36:18;20.33;;;18.13;;
76566;SDS011;65428;53.194;6.132;2024-01-30T06:38:44;20.63;;;18.47;;
76566;SDS011;65428;53.194;6.132;2024-01-30T06:41:10;21.98;;;19.13;;
76566;SDS011;65428;53.194;6.132;2024-01-30T06:43:35;21.27;;;18.40;;
76566;SDS011;65428;53.194;6.132;2024-01-30T06:46:01;21.23;;;18.53;;
76566;SDS011;65428;53.194;6.132;2024-01-30T06:48:27;19.88;;;17.50;;
76566;SDS011;65428;53.194;6.132;2024-01-30T06:50:53;20.95;;;17.38;;
76566;SDS011;65428;53.194;6.132;2024-01-30T06:53:19;19.90;;;17.80;;
76566;SDS011;65428;53.194;6.132;2024-01-30T06:55:45;20.60;;;17.50;;
76566;SDS011;65428;53.194;6.132;2024-01-30T06:58:11;19.58;;;17.48;;
76566;SDS011;65428;53.194;6.132;2024-01-30T07:00:37;21.02;;;17.52;;
76566;SDS011;65428;53.194;6.132;2024-01-30T07:03:03;20.67;;;17.63;;
76566;SDS011;65428;53.194;6.132;2024-01-30T07:05:29;19.77;;;17.27;;
76566;SDS011;65428;53.194;6.132;2024-01-30T07:07:55;19.83;;;16.50;;
76566;SDS011;65428;53.194;6.132;2024-01-30T07:10:20;20.75;;;16.73;;
76566;SDS011;65428;53.194;6.132;2024-01-30T07:12:46;19.92;;;16.70;;
76566;SDS011;65428;53.194;6.132;2024-01-30T07:15:12;19.63;;;16.63;;
76566;SDS011;65428;53.194;6.132;2024-01-30T07:17:41;19.08;;;16.58;;
76566;SDS011;65428;53.194;6.132;2024-01-30T07:20:07;18.93;;;16.27;;
76566;SDS011;65428;53.194;6.132;2024-01-30T07:22:34;19.30;;;16.80;;
76566;SDS011;65428;53.194;6.132;2024-01-30T07:25:00;19.30;;;16.43;;
76566;SDS011;65428;53.194;6.132;2024-01-30T07:27:25;19.27;;;17.08;;
76566;SDS011;65428;53.194;6.132;2024-01-30T07:29:51;19.48;;;17.17;;
76566;SDS011;65428;53.194;6.132;2024-01-30T07:32:17;19.10;;;16.93;;
76566;SDS011;65428;53.194;6.132;2024-01-30T07:34:43;18.10;;;16.20;;
76566;SDS011;65428;53.194;6.132;2024-01-30T07:37:09;17.38;;;15.55;;
76566;SDS011;65428;53.194;6.132;2024-01-30T07:39:35;17.10;;;15.27;;
76566;SDS011;65428;53.194;6.132;2024-01-30T07:42:02;19.25;;;16.25;;
76566;SDS011;65428;53.194;6.132;2024-01-30T07:44:27;17.95;;;16.08;;
76566;SDS011;65428;53.194;6.132;2024-01-30T07:46:53;20.30;;;16.15;;
76566;SDS011;65428;53.194;6.132;2024-01-30T07:49:19;18.33;;;16.15;;
76566;SDS011;65428;53.194;6.132;2024-01-30T07:51:45;18.88;;;16.13;;
76566;SDS011;65428;53.194;6.132;2024-01-30T07:54:14;18.77;;;15.20;;
76566;SDS011;65428;53.194;6.132;2024-01-30T07:56:40;17.88;;;15.32;;
76566;SDS011;65428;53.194;6.132;2024-01-30T07:59:09;19.00;;;16.35;;
76566;SDS011;65428;53.194;6.132;2024-01-30T08:01:36;19.70;;;16.50;;
76566;SDS011;65428;53.194;6.132;2024-01-30T08:04:02;19.27;;;15.40;;
76566;SDS011;65428;53.194;6.132;2024-01-30T08:06:28;20.02;;;15.52;;
76566;SDS011;65428;53.194;6.132;2024-01-30T08:08:53;17.83;;;15.40;;
76566;SDS011;65428;53.194;6.132;2024-01-30T08:11:19;20.08;;;15.75;;
76566;SDS011;65428;53.194;6.132;2024-01-30T08:13:50;17.27;;;15.27;;
76566;SDS011;65428;53.194;6.132;2024-01-30T08:16:16;18.70;;;13.83;;
76566;SDS011;65428;53.194;6.132;2024-01-30T08:18:42;18.47;;;14.60;;
76566;SDS011;65428;53.194;6.132;2024-01-30T08:21:08;17.13;;;14.82;;
76566;SDS011;65428;53.194;6.132;2024-01-30T08:23:34;16.25;;;13.95;;
76566;SDS011;65428;53.194;6.132;2024-01-30T08:25:59;17.03;;;14.23;;
76566;SDS011;65428;53.194;6.132;2024-01-30T08:28:25;15.47;;;13.53;;
76566;SDS011;65428;53.194;6.132;2024-01-30T08:30:51;16.52;;;13.82;;
76566;SDS011;65428;53.194;6.132;2024-01-30T08:33:17;16.83;;;14.37;;
76566;SDS011;65428;53.194;6.132;2024-01-30T08:35:43;15.63;;;13.80;;
76566;SDS011;65428;53.194;6.132;2024-01-30T08:38:09;16.77;;;13.93;;
76566;SDS011;65428;53.194;6.132;2024-01-30T08:40:35;17.30;;;14.32;;
76566;SDS011;65428;53.194;6.132;2024-01-30T08:43:01;16.75;;;14.13;;
76566;SDS011;65428;53.194;6.132;2024-01-30T08:45:26;15.50;;;13.90;;
76566;SDS011;65428;53.194;6.132;2024-01-30T08:47:52;17.10;;;14.10;;
76566;SDS011;65428;53.194;6.132;2024-01-30T08:50:17;16.25;;;13.48;;
76566;SDS011;65428;53.194;6.132;2024-01-30T08:52:43;16.15;;;13.23;;
76566;SDS011;65428;53.194;6.132;2024-01-30T08:55:09;15.80;;;12.93;;
76566;SDS011;65428;53.194;6.132;2024-01-30T08:57:35;15.88;;;13.95;;
76566;SDS011;65428;53.194;6.132;2024-01-30T09:00:01;16.10;;;14.00;;
76566;SDS011;65428;53.194;6.132;2024-01-30T09:02:29;17.17;;;13.80;;
76566;SDS011;65428;53.194;6.132;2024-01-30T09:04:55;16.23;;;13.60;;
76566;SDS011;65428;53.194;6.132;2024-01-30T09:07:20;16.92;;;13.35;;
76566;SDS011;65428;53.194;6.132;2024-01-30T09:09:46;17.60;;;13.87;;
76566;SDS011;65428;53.194;6.132;2024-01-30T09:12:12;15.82;;;13.52;;
76566;SDS011;65428;53.194;6.132;2024-01-30T09:14:38;17.63;;;14.50;;
76566;SDS011;65428;53.194;6.132;2024-01-30T09:17:04;19.13;;;13.90;;
76566;SDS011;65428;53.194;6.132;2024-01-30T09:19:30;18.23;;;14.43;;
76566;SDS011;65428;53.194;6.132;2024-01-30T09:21:56;15.88;;;13.63;;
76566;SDS011;65428;53.194;6.132;2024-01-30T09:24:22;15.15;;;13.40;;
76566;SDS011;65428;53.194;6.132;2024-01-30T09:26:47;16.90;;;13.23;;
76566;SDS011;65428;53.194;6.132;2024-01-30T09:29:13;17.50;;;13.47;;
76566;SDS011;65428;53.194;6.132;2024-01-30T09:31:43;17.40;;;13.47;;
76566;SDS011;65428;53.194;6.132;2024-01-30T09:34:12;17.13;;;13.90;;
76566;SDS011;65428;53.194;6.132;2024-01-30T09:36:38;18.25;;;14.57;;
76566;SDS011;65428;53.194;6.132;2024-01-30T09:39:03;17.92;;;14.27;;
76566;SDS011;65428;53.194;6.132;2024-01-30T09:41:29;18.10;;;14.70;;
76566;SDS011;65428;53.194;6.132;2024-01-30T09:43:58;17.98;;;14.48;;
76566;SDS011;65428;53.194;6.132;2024-01-30T09:46:26;17.58;;;14.35;;
76566;SDS011;65428;53.194;6.132;2024-01-30T09:48:53;17.73;;;14.27;;
76566;SDS011;65428;53.194;6.132;2024-01-30T09:51:20;17.95;;;14.27;;
76566;SDS011;65428;53.194;6.132;2024-01-30T09:53:47;18.45;;;14.25;;
76566;SDS011;65428;53.194;6.132;2024-01-30T09:56:14;17.15;;;13.52;;
76566;SDS011;65428;53.194;6.132;2024-01-30T09:58:40;18.85;;;14.18;;
76566;SDS011;65428;53.194;6.132;2024-01-30T10:01:07;17.98;;;14.07;;
76566;SDS011;65428;53.194;6.132;2024-01-30T10:03:32;17.90;;;14.70;;
76566;SDS011;65428;53.194;6.132;2024-01-30T10:05:58;20.07;;;14.90;;
76566;SDS011;65428;53.194;6.132;2024-01-30T10:08:26;17.80;;;14.73;;
76566;SDS011;65428;53.194;6.132;2024-01-30T10:10:51;20.00;;;15.55;;
76566;SDS011;65428;53.194;6.132;2024-01-30T10:13:17;20.63;;;15.13;;
76566;SDS011;65428;53.194;6.132;2024-01-30T10:15:43;19.60;;;14.33;;
76566;SDS011;65428;53.194;6.132;2024-01-30T10:18:10;19.17;;;14.60;;
76566;SDS011;65428;53.194;6.132;2024-01-30T10:20:36;18.40;;;14.52;;
76566;SDS011;65428;53.194;6.132;2024-01-30T10:23:02;18.25;;;14.82;;
76566;SDS011;65428;53.194;6.132;2024-01-30T10:25:28;18.83;;;15.02;;
76566;SDS011;65428;53.194;6.132;2024-01-30T10:27:55;18.67;;;15.00;;
76566;SDS011;65428;53.194;6.132;2024-01-30T10:30:21;18.97;;;14.47;;
76566;SDS011;65428;53.194;6.132;2024-01-30T10:32:48;17.17;;;13.63;;
76566;SDS011;65428;53.194;6.132;2024-01-30T10:35:14;14.90;;;11.20;;
76566;SDS011;65428;53.194;6.132;2024-01-30T10:37:43;13.73;;;8.93;;
76566;SDS011;65428;53.194;6.132;2024-01-30T10:40:09;12.00;;;9.13;;
76566;SDS011;65428;53.194;6.132;2024-01-30T10:42:38;16.38;;;9.82;;
76566;SDS011;65428;53.194;6.132;2024-01-30T10:45:11;10.98;;;8.88;;
76566;SDS011;65428;53.194;6.132;2024-01-30T10:47:39;12.47;;;8.63;;
76566;SDS011;65428;53.194;6.132;2024-01-30T10:50:07;12.93;;;9.02;;
76566;SDS011;65428;53.194;6.132;2024-01-30T10:52:35;13.40;;;9.18;;
76566;SDS011;65428;53.194;6.132;2024-01-30T10:55:01;12.77;;;8.07;;
76566;SDS011;65428;53.194;6.132;2024-01-30T10:57:31;13.05;;;8.40;;
76566;SDS011;65428;53.194;6.132;2024-01-30T10:59:59;13.03;;;8.20;;
76566;SDS011;65428;53.194;6.132;2024-01-30T11:02:30;12.30;;;8.25;;
76566;SDS011;65428;53.194;6.132;2024-01-30T11:04:57;12.73;;;6.60;;
76566;SDS011;65428;53.194;6.132;2024-01-30T11:07:24;10.95;;;6.30;;
76566;SDS011;65428;53.194;6.132;2024-01-30T11:10:03;12.25;;;5.40;;
76566;SDS011;65428;53.194;6.132;2024-01-30T11:12:30;14.18;;;5.25;;
76566;SDS011;65428;53.194;6.132;2024-01-30T11:20:19;9.90;;;4.68;;
76566;SDS011;65428;53.194;6.132;2024-01-30T11:22:56;12.77;;;4.45;;
76566;SDS011;65428;53.194;6.132;2024-01-30T11:25:23;13.35;;;4.28;;
76566;SDS011;65428;53.194;6.132;2024-01-30T11:27:53;11.07;;;3.78;;
76566;SDS011;65428;53.194;6.132;2024-01-30T11:33:05;10.43;;;4.53;;
76566;SDS011;65428;53.194;6.132;2024-01-30T11:35:35;13.00;;;4.45;;
76566;SDS011;65428;53.194;6.132;2024-01-30T11:38:02;11.75;;;4.07;;
76566;SDS011;65428;53.194;6.132;2024-01-30T11:40:28;13.45;;;4.30;;
76566;SDS011;65428;53.194;6.132;2024-01-30T11:42:55;12.32;;;4.07;;
76566;SDS011;65428;53.194;6.132;2024-01-30T11:45:23;9.93;;;2.70;;
76566;SDS011;65428;53.194;6.132;2024-01-30T11:47:49;8.88;;;2.10;;
76566;SDS011;65428;53.194;6.132;2024-01-30T11:50:14;7.90;;;2.20;;
76566;SDS011;65428;53.194;6.132;2024-01-30T11:52:41;8.35;;;1.95;;
76566;SDS011;65428;53.194;6.132;2024-01-30T11:55:08;7.47;;;1.25;;
76566;SDS011;65428;53.194;6.132;2024-01-30T11:57:34;6.20;;;1.30;;
76566;SDS011;65428;53.194;6.132;2024-01-30T12:00:02;6.33;;;1.50;;
76566;SDS011;65428;53.194;6.132;2024-01-30T12:02:33;6.30;;;1.10;;
76566;SDS011;65428;53.194;6.132;2024-01-30T12:05:02;5.40;;;0.63;;
76566;SDS011;65428;53.194;6.132;2024-01-30T12:07:29;5.30;;;0.80;;
76566;SDS011;65428;53.194;6.132;2024-01-30T12:09:55;3.77;;;0.53;;
76566;SDS011;65428;53.194;6.132;2024-01-30T12:12:22;4.40;;;0.60;;
76566;SDS011;65428;53.194;6.132;2024-01-30T12:14:50;5.68;;;0.80;;
76566;SDS011;65428;53.194;6.132;2024-01-30T12:17:23;4.43;;;0.80;;
76566;SDS011;65428;53.194;6.132;2024-01-30T12:20:04;4.90;;;1.20;;
76566;SDS011;65428;53.194;6.132;2024-01-30T12:22:38;4.68;;;1.42;;
76566;SDS011;65428;53.194;6.132;2024-01-30T12:25:10;5.35;;;0.82;;
76566;SDS011;65428;53.194;6.132;2024-01-30T12:27:37;3.90;;;0.80;;
76566;SDS011;65428;53.194;6.132;2024-01-30T12:30:07;5.80;;;0.80;;
76566;SDS011;65428;53.194;6.132;2024-01-30T12:32:47;6.45;;;0.68;;
76566;SDS011;65428;53.194;6.132;2024-01-30T12:35:15;5.65;;;0.40;;
76566;SDS011;65428;53.194;6.132;2024-01-30T12:37:44;4.03;;;0.47;;
76566;SDS011;65428;53.194;6.132;2024-01-30T12:40:10;4.53;;;0.50;;
76566;SDS011;65428;53.194;6.132;2024-01-30T12:42:38;3.78;;;0.50;;
76566;SDS011;65428;53.194;6.132;2024-01-30T12:45:04;3.30;;;0.57;;
76566;SDS011;65428;53.194;6.132;2024-01-30T12:47:31;4.05;;;0.60;;
76566;SDS011;65428;53.194;6.132;2024-01-30T12:49:57;4.88;;;0.70;;
76566;SDS011;65428;53.194;6.132;2024-01-30T12:52:23;3.90;;;0.60;;
76566;SDS011;65428;53.194;6.132;2024-01-30T12:54:49;5.27;;;0.73;;
76566;SDS011;65428;53.194;6.132;2024-01-30T12:57:16;3.72;;;0.80;;
76566;SDS011;65428;53.194;6.132;2024-01-30T12:59:43;4.63;;;1.00;;
76566;SDS011;65428;53.194;6.132;2024-01-30T13:02:09;5.97;;;1.23;;
76566;SDS011;65428;53.194;6.132;2024-01-30T13:04:35;6.13;;;1.00;;
76566;SDS011;65428;53.194;6.132;2024-01-30T13:07:01;4.38;;;1.00;;
76566;SDS011;65428;53.194;6.132;2024-01-30T13:09:29;5.07;;;1.42;;
76566;SDS011;65428;53.194;6.132;2024-01-30T13:11:55;4.00;;;1.40;;
76566;SDS011;65428;53.194;6.132;2024-01-30T13:14:21;6.30;;;1.40;;
76566;SDS011;65428;53.194;6.132;2024-01-30T13:16:47;4.97;;;1.27;;
76566;SDS011;65428;53.194;6.132;2024-01-30T13:19:13;4.57;;;1.00;;
76566;SDS011;65428;53.194;6.132;2024-01-30T13:21:38;4.70;;;1.20;;
76566;SDS011;65428;53.194;6.132;2024-01-30T13:24:04;5.03;;;1.42;;
76566;SDS011;65428;53.194;6.132;2024-01-30T13:26:31;3.28;;;1.70;;
76566;SDS011;65428;53.194;6.132;2024-01-30T13:28:58;5.22;;;2.13;;
76566;SDS011;65428;53.194;6.132;2024-01-30T13:31:23;4.88;;;1.80;;
76566;SDS011;65428;53.194;6.132;2024-01-30T13:33:50;4.00;;;2.13;;
76566;SDS011;65428;53.194;6.132;2024-01-30T13:36:15;4.78;;;2.35;;
76566;SDS011;65428;53.194;6.132;2024-01-30T13:38:41;6.20;;;2.80;;
76566;SDS011;65428;53.194;6.132;2024-01-30T13:41:07;6.00;;;2.60;;
76566;SDS011;65428;53.194;6.132;2024-01-30T13:43:32;6.38;;;3.40;;
76566;SDS011;65428;53.194;6.132;2024-01-30T13:45:58;5.73;;;2.90;;
76566;SDS011;65428;53.194;6.132;2024-01-30T13:48:24;7.93;;;3.20;;
76566;SDS011;65428;53.194;6.132;2024-01-30T13:50:50;6.25;;;2.28;;
76566;SDS011;65428;53.194;6.132;2024-01-30T13:53:15;8.50;;;2.20;;
76566;SDS011;65428;53.194;6.132;2024-01-30T13:55:41;6.07;;;2.33;;
76566;SDS011;65428;53.194;6.132;2024-01-30T13:58:07;7.87;;;3.20;;
76566;SDS011;65428;53.194;6.132;2024-01-30T14:00:35;6.13;;;2.75;;
76566;SDS011;65428;53.194;6.132;2024-01-30T14:03:01;6.43;;;2.90;;
76566;SDS011;65428;53.194;6.132;2024-01-30T14:05:28;6.93;;;3.22;;
76566;SDS011;65428;53.194;6.132;2024-01-30T14:07:53;7.57;;;3.42;;
76566;SDS011;65428;53.194;6.132;2024-01-30T14:10:20;6.72;;;2.67;;
76566;SDS011;65428;53.194;6.132;2024-01-30T14:12:45;5.35;;;3.20;;
76566;SDS011;65428;53.194;6.132;2024-01-30T14:15:13;7.63;;;3.50;;
76566;SDS011;65428;53.194;6.132;2024-01-30T14:17:40;7.38;;;3.80;;
76566;SDS011;65428;53.194;6.132;2024-01-30T14:20:06;10.25;;;4.45;;
76566;SDS011;65428;53.194;6.132;2024-01-30T14:22:33;8.98;;;4.45;;
76566;SDS011;65428;53.194;6.132;2024-01-30T14:24:59;7.28;;;4.07;;
76566;SDS011;65428;53.194;6.132;2024-01-30T14:27:29;8.27;;;4.38;;
76566;SDS011;65428;53.194;6.132;2024-01-30T14:29:55;8.98;;;4.72;;
76566;SDS011;65428;53.194;6.132;2024-01-30T14:32:21;9.32;;;4.93;;